Time;durP1;ratioP1;P1;durP2;ratioP2;P2;SDS_P1;SDS_P2;PMS_P1;PMS_P2;Temp;Humidity;BMP_temperature;BMP_pressure;BME280_temperature;BME280_humidity;BME280_pressure;Samples;Min_cycle;Max_cycle;Signal;HPM_P1;HPM_P2
2022/01/24 00:01:07;;;;;;;12.75;7.53;;;6.00;99.90;;;;;;4966400;28;20041;-50
2022/01/24 00:03:32;;;;;;;12.48;7.70;;;6.00;99.90;;;;;;4968333;28;20039;-48
2022/01/24 00:05:58;;;;;;;15.38;9.20;;;6.00;99.90;;;;;;4974968;28;20364;-48
2022/01/24 00:08:23;;;;;;;14.75;8.70;;;6.00;99.90;;;;;;4975187;28;20034;-48
2022/01/24 00:10:51;;;;;;;15.30;9.38;;;6.10;99.90;;;;;;4974980;28;20117;-48
2022/01/24 00:26:54;;;;;;;18.50;10.68;;;6.00;99.90;;;;;;4966310;28;20050;-49
2022/01/24 00:29:22;;;;;;;19.90;11.57;;;6.00;99.90;;;;;;4970066;28;20039;-49
2022/01/24 00:31:49;;;;;;;17.73;10.95;;;6.00;99.90;;;;;;4970726;28;20039;-51
2022/01/24 00:34:16;;;;;;;18.48;10.85;;;6.00;99.90;;;;;;4973769;28;20411;-52
2022/01/24 00:36:46;;;;;;;18.10;11.50;;;6.00;99.90;;;;;;4955303;28;20042;-48
2022/01/24 00:39:12;;;;;;;18.52;11.73;;;6.00;99.90;;;;;;4972776;28;20090;-51
2022/01/24 00:42:00;;;;;;;19.35;11.18;;;6.00;99.90;;;;;;4964304;28;20103;-48
2022/01/24 00:44:43;;;;;;;19.33;12.60;;;6.00;99.90;;;;;;4966218;28;20062;-52
2022/01/24 00:47:29;;;;;;;20.00;12.45;;;6.00;99.90;;;;;;4966822;28;20035;-50
2022/01/24 00:53:10;;;;;;;20.17;12.82;;;6.00;99.90;;;;;;4973859;28;20039;-49
2022/01/24 00:55:25;;;;;;;20.63;12.55;;;6.00;99.90;;;;;;4988975;28;20588;-48
2022/01/24 00:57:51;;;;;;;19.77;12.77;;;6.00;99.90;;;;;;4969824;28;20043;-47
2022/01/24 01:00:23;;;;;;;23.55;13.75;;;6.00;99.90;;;;;;4953399;28;20022;-51
2022/01/24 01:02:49;;;;;;;;;;;6.00;99.90;;;;;;4959889;28;20035;-51
2022/01/24 01:07:54;;;;;;;18.90;12.45;;;5.90;99.90;;;;;;4973777;28;20419;-54
2022/01/24 01:18:33;;;;;;;20.35;13.65;;;5.90;99.90;;;;;;4967571;28;20415;-54
2022/01/24 01:21:07;;;;;;;21.55;13.73;;;5.90;99.90;;;;;;4969994;28;20035;-54
2022/01/24 01:23:36;;;;;;;23.27;15.00;;;5.90;99.90;;;;;;4973688;28;20278;-52
2022/01/24 01:26:06;;;;;;;24.90;14.75;;;5.90;99.90;;;;;;4974413;28;20030;-54
2022/01/24 01:28:33;;;;;;;22.23;14.35;;;5.90;99.90;;;;;;4972790;28;20038;-54
2022/01/24 01:31:04;;;;;;;22.52;15.25;;;5.90;99.90;;;;;;4969470;28;20050;-52
2022/01/24 01:33:47;;;;;;;21.58;14.10;;;5.90;99.90;;;;;;4968228;28;20049;-54
2022/01/24 01:36:22;;;;;;;23.05;14.75;;;5.90;99.90;;;;;;4956065;28;20546;-54
2022/01/24 01:53:54;;;;;;;24.30;14.52;;;5.90;99.90;;;;;;4966264;28;20542;-54
2022/01/24 01:55:40;;;;;;;23.55;14.40;;;5.90;99.90;;;;;;4967391;28;20054;-53
2022/01/24 01:58:14;;;;;;;23.27;14.70;;;5.90;99.90;;;;;;4967919;28;20090;-54
2022/01/24 02:00:42;;;;;;;22.02;14.63;;;5.90;99.90;;;;;;4973141;28;20049;-54
2022/01/24 02:03:08;;;;;;;21.27;13.57;;;5.90;99.90;;;;;;4973186;28;20093;-54
2022/01/24 02:05:35;;;;;;;21.20;14.10;;;5.90;99.90;;;;;;4972771;28;20042;-54
2022/01/24 02:08:01;;;;;;;22.02;13.82;;;5.90;99.90;;;;;;4971539;28;20046;-54
2022/01/24 02:10:26;;;;;;;20.67;14.27;;;6.00;99.90;;;;;;4969763;28;20407;-53
2022/01/24 02:12:55;;;;;;;21.70;14.02;;;6.00;99.90;;;;;;4963232;28;20446;-54
2022/01/24 02:15:29;;;;;;;23.27;14.23;;;5.90;99.90;;;;;;4962080;28;20507;-54
2022/01/24 02:18:06;;;;;;;25.52;14.32;;;5.90;99.90;;;;;;4971761;28;20507;-54
2022/01/24 02:21:04;;;;;;;21.20;13.63;;;5.90;99.90;;;;;;4972546;28;20042;-54
2022/01/24 02:25:56;;;;;;;20.65;13.70;;;5.90;99.90;;;;;;4967889;28;20047;-55
2022/01/24 02:29:27;;;;;;;21.38;14.02;;;5.90;99.90;;;;;;4962572;28;20043;-53
2022/01/24 02:31:55;;;;;;;16.35;10.93;;;5.80;99.90;;;;;;4971516;28;20195;-53
2022/01/24 02:34:23;;;;;;;17.38;11.07;;;5.90;99.90;;;;;;4972767;28;20450;-53
2022/01/24 02:36:49;;;;;;;15.93;10.43;;;5.80;99.90;;;;;;4972667;28;20195;-54
2022/01/24 02:39:43;;;;;;;18.73;11.30;;;5.90;99.90;;;;;;4972405;28;20061;-52
2022/01/24 02:53:11;;;;;;;12.77;9.20;;;5.80;99.90;;;;;;4971072;28;20059;-54
2022/01/24 02:55:38;;;;;;;13.60;9.15;;;5.80;99.90;;;;;;4928802;28;20098;-54
2022/01/24 02:58:04;;;;;;;13.30;9.10;;;5.80;99.90;;;;;;4962004;28;20562;-54
2022/01/24 03:00:33;;;;;;;12.30;7.85;;;5.80;99.90;;;;;;4972383;28;20051;-54
2022/01/24 03:02:59;;;;;;;16.00;8.63;;;5.80;99.90;;;;;;4958456;28;20046;-54
2022/01/24 03:05:25;;;;;;;14.30;8.50;;;5.80;99.90;;;;;;4976185;28;20093;-55
2022/01/24 03:07:51;;;;;;;13.93;8.90;;;5.80;99.90;;;;;;4975123;28;20601;-52
2022/01/24 03:10:51;;;;;;;12.90;9.15;;;5.80;99.90;;;;;;4976184;28;20050;-54
2022/01/24 03:13:18;;;;;;;13.82;8.60;;;5.80;99.90;;;;;;4974048;28;20051;-54
2022/01/24 03:15:49;;;;;;;11.15;7.63;;;5.80;99.90;;;;;;4975563;28;20042;-51
2022/01/24 03:18:15;;;;;;;12.60;8.30;;;5.80;99.90;;;;;;4975698;28;20043;-54
2022/01/24 03:20:41;;;;;;;12.73;8.52;;;5.80;99.90;;;;;;4958732;28;20126;-53
2022/01/24 03:23:08;;;;;;;13.25;8.27;;;5.80;99.90;;;;;;4974383;28;20483;-51
2022/01/24 03:25:34;;;;;;;13.98;8.80;;;5.80;99.90;;;;;;4974283;28;20388;-53
2022/01/24 03:28:00;;;;;;;15.23;9.35;;;5.80;99.90;;;;;;4974350;28;20090;-54
2022/01/24 03:30:25;;;;;;;14.70;9.05;;;5.70;99.90;;;;;;4975711;28;20046;-52
2022/01/24 03:32:52;;;;;;;14.27;9.00;;;5.80;99.90;;;;;;4975707;28;20054;-52
2022/01/24 03:35:18;;;;;;;13.82;9.00;;;5.80;99.90;;;;;;4970866;28;20031;-54
2022/01/24 03:37:44;;;;;;;15.20;10.18;;;5.80;99.90;;;;;;4975751;28;20087;-53
2022/01/24 03:40:10;;;;;;;13.20;9.25;;;5.80;99.90;;;;;;4975366;28;20419;-54
2022/01/24 03:42:36;;;;;;;14.07;9.30;;;5.80;99.90;;;;;;4970396;28;20038;-54
2022/01/24 03:45:05;;;;;;;16.38;10.05;;;5.80;99.90;;;;;;4975399;28;20069;-54
2022/01/24 03:49:57;;;;;;;14.88;9.65;;;5.90;99.90;;;;;;4990001;28;20047;-54
2022/01/24 03:52:23;;;;;;;14.65;10.10;;;5.80;99.90;;;;;;4975462;28;20050;-54
2022/01/24 03:54:50;;;;;;;14.95;10.43;;;5.80;99.90;;;;;;4967167;28;20042;-53
2022/01/24 03:57:18;;;;;;;15.70;9.63;;;5.80;99.90;;;;;;4963791;28;20093;-53
2022/01/24 03:59:44;;;;;;;15.50;10.05;;;5.70;99.90;;;;;;4957710;28;20039;-54
2022/01/24 04:02:11;;;;;;;15.40;10.23;;;5.80;99.90;;;;;;4975459;28;20403;-54
2022/01/24 04:04:37;;;;;;;14.05;9.68;;;5.80;99.90;;;;;;4990057;28;20052;-53
2022/01/24 04:07:04;;;;;;;15.23;9.60;;;5.70;99.90;;;;;;4973317;28;20495;-54
2022/01/24 04:09:30;;;;;;;14.48;8.32;;;5.80;99.90;;;;;;4975377;28;20458;-54
2022/01/24 04:11:58;;;;;;;14.52;9.23;;;5.80;99.90;;;;;;4981118;28;20062;-50
2022/01/24 04:15:13;;;;;;;13.23;8.60;;;5.70;99.90;;;;;;4956896;28;20125;-52
2022/01/24 04:22:11;;;;;;;16.08;9.98;;;5.60;99.90;;;;;;4974962;28;20134;-52
2022/01/24 04:24:37;;;;;;;15.75;9.48;;;5.60;99.90;;;;;;4974873;28;20043;-49
2022/01/24 04:27:03;;;;;;;13.65;9.05;;;5.60;99.90;;;;;;4974460;28;20061;-51
2022/01/24 04:29:29;;;;;;;21.95;13.27;;;5.60;99.90;;;;;;4974710;28;20118;-53
2022/01/24 04:31:54;;;;;;;23.45;13.80;;;5.60;99.90;;;;;;4974503;28;20503;-48
2022/01/24 04:34:20;;;;;;;25.00;14.65;;;5.60;99.90;;;;;;4967629;28;20042;-49
2022/01/24 04:36:46;;;;;;;20.27;13.30;;;5.60;99.90;;;;;;4974845;28;20042;-50
2022/01/24 04:39:12;;;;;;;16.50;11.07;;;5.60;99.90;;;;;;4975149;28;20488;-51
2022/01/24 04:41:42;;;;;;;18.60;11.68;;;5.60;99.90;;;;;;4974169;28;20046;-52
2022/01/24 04:44:18;;;;;;;19.25;12.00;;;5.60;99.90;;;;;;4964631;28;20051;-52
2022/01/24 04:46:52;;;;;;;17.90;10.77;;;5.60;99.90;;;;;;4957317;28;20093;-52
2022/01/24 04:52:33;;;;;;;22.73;13.93;;;5.60;99.90;;;;;;4989362;28;20415;-52
2022/01/24 04:54:58;;;;;;;36.55;19.95;;;5.60;99.90;;;;;;4974033;28;20496;-50
2022/01/24 04:57:26;;;;;;;32.88;18.55;;;5.60;99.90;;;;;;4965404;28;20053;-51
2022/01/24 04:59:53;;;;;;;29.13;16.30;;;5.60;99.90;;;;;;4970600;28;20054;-52
2022/01/24 05:02:21;;;;;;;30.20;17.92;;;5.70;99.90;;;;;;4974030;28;20047;-51
2022/01/24 05:04:48;;;;;;;28.33;18.02;;;5.70;99.90;;;;;;4972680;28;20098;-49
2022/01/24 05:07:14;;;;;;;27.08;16.73;;;5.60;99.90;;;;;;4974127;28;20042;-51
2022/01/24 05:09:49;;;;;;;30.35;17.88;;;5.60;99.90;;;;;;4974202;28;20043;-50
2022/01/24 05:12:26;;;;;;;30.95;18.13;;;5.60;99.90;;;;;;4957433;28;20054;-51
2022/01/24 05:26:02;;;;;;;36.90;20.92;;;5.60;99.90;;;;;;4972925;28;20042;-52
2022/01/24 05:28:30;;;;;;;37.08;21.13;;;5.60;99.90;;;;;;4972547;28;20045;-49
2022/01/24 05:30:56;;;;;;;39.15;20.92;;;5.60;99.90;;;;;;4973637;28;20043;-49
2022/01/24 05:33:22;;;;;;;41.13;23.25;;;5.60;99.90;;;;;;4972486;28;20066;-51
2022/01/24 05:35:48;;;;;;;39.08;21.60;;;5.60;99.90;;;;;;4988048;23;20073;-49
2022/01/24 05:38:14;;;;;;;40.15;22.98;;;5.60;99.90;;;;;;4985416;28;20052;-51
2022/01/24 05:40:39;;;;;;;43.05;23.90;;;5.60;99.90;;;;;;4997326;28;20042;-48
2022/01/24 05:43:08;;;;;;;41.58;22.70;;;5.60;99.90;;;;;;4996769;28;20129;-50
2022/01/24 05:45:34;;;;;;;35.65;20.63;;;5.60;99.90;;;;;;4984545;28;20038;-48
2022/01/24 05:48:01;;;;;;;35.58;21.02;;;5.60;99.90;;;;;;4971245;28;20081;-47
2022/01/24 05:50:27;;;;;;;36.42;21.90;;;5.60;99.90;;;;;;4972909;28;20494;-48
2022/01/24 05:52:52;;;;;;;41.92;22.58;;;5.60;99.90;;;;;;4973041;28;20045;-47
2022/01/24 05:55:18;;;;;;;43.08;23.63;;;5.60;99.90;;;;;;4975173;28;20049;-48
2022/01/24 05:57:44;;;;;;;37.75;21.42;;;5.60;99.90;;;;;;4986212;28;20038;-50
2022/01/24 06:00:12;;;;;;;42.22;23.50;;;5.60;99.90;;;;;;4973138;28;20026;-47
2022/01/24 06:02:37;;;;;;;39.08;22.50;;;5.60;99.90;;;;;;4972984;28;20089;-47
2022/01/24 06:05:03;;;;;;;46.35;23.40;;;5.50;99.90;;;;;;4971836;28;20126;-48
2022/01/24 06:07:29;;;;;;;44.20;23.88;;;5.50;99.90;;;;;;4972569;28;20034;-47
2022/01/24 06:09:54;;;;;;;39.65;23.20;;;5.60;99.90;;;;;;4972943;28;20059;-48
2022/01/24 06:12:20;;;;;;;42.90;25.05;;;5.60;99.90;;;;;;4973077;28;20034;-51
2022/01/24 06:14:46;;;;;;;49.45;26.67;;;5.60;99.90;;;;;;4972839;28;20458;-48
2022/01/24 06:17:12;;;;;;;49.95;26.77;;;5.60;99.90;;;;;;4978447;28;20114;-47
2022/01/24 06:19:37;;;;;;;48.00;26.30;;;5.60;99.90;;;;;;4977450;28;20038;-48
2022/01/24 06:22:03;;;;;;;56.65;29.08;;;5.60;99.90;;;;;;4972766;28;20403;-48
2022/01/24 06:24:29;;;;;;;48.80;26.65;;;5.60;99.90;;;;;;4972462;28;20662;-48
2022/01/24 06:26:55;;;;;;;57.38;29.52;;;5.60;99.90;;;;;;4972919;28;20046;-50
2022/01/24 06:29:20;;;;;;;59.53;30.48;;;5.60;99.90;;;;;;4974033;28;20050;-53
2022/01/24 06:31:46;;;;;;;58.30;32.20;;;5.60;99.90;;;;;;4966690;28;20031;-48
2022/01/24 06:34:12;;;;;;;64.43;32.50;;;5.60;99.90;;;;;;4967970;28;20038;-47
2022/01/24 06:36:37;;;;;;;66.00;33.33;;;5.60;99.90;;;;;;4975047;28;20418;-48
2022/01/24 06:39:05;;;;;;;58.55;33.65;;;5.60;99.90;;;;;;4978928;28;20074;-49
2022/01/24 06:41:34;;;;;;;63.38;34.95;;;5.60;99.90;;;;;;4979005;28;20270;-47
2022/01/24 06:44:01;;;;;;;69.78;35.90;;;5.60;99.90;;;;;;4978981;28;20117;-47
2022/01/24 06:46:27;;;;;;;70.00;36.42;;;5.60;99.90;;;;;;4984775;28;20514;-51
2022/01/24 06:48:52;;;;;;;71.85;36.90;;;5.60;99.90;;;;;;4998535;28;20069;-48
2022/01/24 06:51:19;;;;;;;68.90;37.45;;;5.70;99.90;;;;;;4977264;28;20066;-48
2022/01/24 06:53:44;;;;;;;71.40;36.47;;;6.10;99.90;;;;;;4967901;28;20037;-48
2022/01/24 06:56:10;;;;;;;70.22;36.95;;;5.60;99.90;;;;;;4967314;28;20118;-49
2022/01/24 06:58:36;;;;;;;71.07;36.45;;;5.70;99.90;;;;;;4966651;28;20050;-51
2022/01/24 07:01:03;;;;;;;66.22;34.70;;;5.70;99.90;;;;;;4984364;28;20130;-48
2022/01/24 07:03:28;;;;;;;70.38;36.00;;;5.70;99.90;;;;;;4967522;28;20043;-51
2022/01/24 07:05:54;;;;;;;71.22;36.40;;;5.70;99.90;;;;;;4966982;28;20042;-51
2022/01/24 07:08:20;;;;;;;67.43;35.50;;;5.70;99.90;;;;;;4963472;28;20043;-52
2022/01/24 07:10:45;;;;;;;72.72;37.75;;;5.70;99.90;;;;;;4963736;28;20031;-52
2022/01/24 07:13:11;;;;;;;73.20;38.15;;;5.70;99.90;;;;;;4966729;28;20081;-49
2022/01/24 07:15:46;;;;;;;74.43;38.75;;;5.70;99.90;;;;;;4970343;28;20462;-49
2022/01/24 07:18:57;;;;;;;71.53;38.35;;;5.70;99.90;;;;;;4978880;28;20042;-52
2022/01/24 07:21:03;;;;;;;77.45;39.30;;;5.60;99.90;;;;;;4978623;28;20043;-50
2022/01/24 07:23:29;;;;;;;73.28;39.90;;;5.70;99.90;;;;;;4978707;28;20392;-49
2022/01/24 07:25:54;;;;;;;75.00;39.13;;;5.60;99.90;;;;;;4981079;28;20050;-49
2022/01/24 07:28:20;;;;;;;75.50;38.63;;;5.60;99.90;;;;;;4974421;28;20130;-52
2022/01/24 07:30:46;;;;;;;72.70;39.25;;;5.70;99.90;;;;;;4978690;28;20553;-51
2022/01/24 07:33:15;;;;;;;73.13;37.67;;;5.60;99.90;;;;;;4978161;28;20098;-49
2022/01/24 07:35:43;;;;;;;74.53;37.78;;;5.70;99.90;;;;;;4974449;28;20503;-52
2022/01/24 07:38:09;;;;;;;76.40;39.58;;;5.70;99.90;;;;;;4976914;28;20047;-49
2022/01/24 07:40:41;;;;;;;74.60;39.50;;;5.70;99.90;;;;;;4978780;28;20050;-49
2022/01/24 07:45:36;;;;;;;69.60;39.40;;;5.70;99.90;;;;;;4978165;28;20051;-54
2022/01/24 07:48:02;;;;;;;73.05;39.13;;;5.70;99.90;;;;;;4968376;28;20039;-51
2022/01/24 07:50:28;;;;;;;81.93;40.47;;;5.70;99.90;;;;;;4966450;28;20066;-51
2022/01/24 07:52:55;;;;;;;79.22;40.58;;;5.70;99.90;;;;;;4973776;28;20495;-52
2022/01/24 07:55:22;;;;;;;77.10;39.83;;;5.70;99.90;;;;;;4975097;28;20046;-49
2022/01/24 07:57:47;;;;;;;70.97;39.38;;;5.70;99.90;;;;;;4978914;28;20038;-53
2022/01/24 08:00:13;;;;;;;71.55;38.65;;;5.60;99.90;;;;;;4983424;28;20089;-52
2022/01/24 08:02:40;;;;;;;74.38;39.67;;;5.70;99.90;;;;;;4966797;28;20118;-54
2022/01/24 08:05:07;;;;;;;77.10;39.53;;;5.70;99.90;;;;;;4973194;28;20372;-52
2022/01/24 08:07:33;;;;;;;73.22;39.55;;;5.60;99.90;;;;;;4974190;28;20450;-52
2022/01/24 08:09:58;;;;;;;73.22;38.88;;;5.70;99.90;;;;;;4974966;28;20047;-52
2022/01/24 08:12:24;;;;;;;72.85;39.13;;;5.70;99.90;;;;;;4978064;28;20038;-51
2022/01/24 08:14:50;;;;;;;73.60;39.92;;;5.70;99.90;;;;;;4975003;28;20399;-52
2022/01/24 08:17:16;;;;;;;78.43;40.88;;;5.70;99.90;;;;;;4974714;28;20042;-52
2022/01/24 08:19:41;;;;;;;75.53;41.10;;;5.70;99.90;;;;;;4974666;28;20545;-52
2022/01/24 08:22:07;;;;;;;76.80;39.45;;;5.70;99.90;;;;;;4973477;28;20521;-52
2022/01/24 08:24:33;;;;;;;76.65;42.75;;;5.70;99.90;;;;;;4971540;28;20084;-51
2022/01/24 08:26:58;;;;;;;80.57;41.25;;;5.70;99.90;;;;;;4974118;28;20046;-50
2022/01/24 08:29:24;;;;;;;77.95;40.00;;;5.70;99.90;;;;;;4972363;28;20094;-52
2022/01/24 08:31:49;;;;;;;73.65;39.67;;;5.70;99.90;;;;;;4974947;28;20505;-51
2022/01/24 08:34:16;;;;;;;75.78;39.55;;;5.70;99.90;;;;;;4976555;28;20718;-51
2022/01/24 08:36:41;;;;;;;79.10;40.17;;;5.70;99.90;;;;;;4965867;28;20034;-52
2022/01/24 08:39:08;;;;;;;79.38;39.80;;;5.70;99.90;;;;;;4967387;28;20253;-50
2022/01/24 08:42:01;;;;;;;73.53;38.75;;;5.70;99.90;;;;;;4966095;28;20039;-52
2022/01/24 08:45:42;;;;;;;81.40;39.95;;;5.70;99.90;;;;;;4964506;28;20085;-52
2022/01/24 08:47:18;;;;;;;69.78;38.00;;;5.70;99.90;;;;;;4962471;28;20046;-52
2022/01/24 08:49:44;;;;;;;65.30;37.60;;;5.70;99.90;;;;;;4964600;28;20039;-49
2022/01/24 08:52:09;;;;;;;67.43;37.40;;;5.70;99.90;;;;;;4961008;28;20031;-54
2022/01/24 08:54:35;;;;;;;66.20;37.33;;;5.70;99.90;;;;;;4963426;28;20031;-52
2022/01/24 08:57:01;;;;;;;66.30;36.10;;;5.80;99.90;;;;;;4971032;28;20165;-52
2022/01/24 08:59:26;;;;;;;67.72;36.50;;;5.70;99.90;;;;;;4973758;28;20047;-53
2022/01/24 09:01:52;;;;;;;64.20;35.63;;;5.80;99.90;;;;;;4963874;28;20645;-50
2022/01/24 09:04:18;;;;;;;68.03;36.78;;;5.70;99.90;;;;;;4953721;28;20055;-49
2022/01/24 09:06:43;;;;;;;63.42;35.17;;;5.80;99.90;;;;;;4963171;28;20035;-54
2022/01/24 09:09:09;;;;;;;62.60;36.83;;;5.70;99.90;;;;;;4963898;28;20063;-54
2022/01/24 09:11:36;;;;;;;61.33;34.83;;;5.70;99.90;;;;;;4960676;28;20122;-52
2022/01/24 09:14:04;;;;;;;62.28;35.03;;;5.70;99.90;;;;;;4959461;28;20035;-52
2022/01/24 09:16:30;;;;;;;60.60;34.83;;;5.70;99.90;;;;;;4958163;28;20043;-50
2022/01/24 09:18:55;;;;;;;61.40;34.13;;;5.70;99.90;;;;;;4964301;28;20124;-53
2022/01/24 09:21:22;;;;;;;57.13;33.38;;;5.70;99.90;;;;;;4963805;28;20054;-53
2022/01/24 09:23:48;;;;;;;58.72;34.40;;;5.70;99.90;;;;;;4962692;28;20038;-52
2022/01/24 09:26:17;;;;;;;58.30;34.00;;;5.70;99.90;;;;;;4966670;28;20495;-50
2022/01/24 09:28:43;;;;;;;56.65;33.17;;;5.70;99.90;;;;;;4961721;28;20049;-49
2022/01/24 09:31:08;;;;;;;61.33;34.45;;;5.70;99.90;;;;;;4958169;28;20039;-50
2022/01/24 09:33:35;;;;;;;53.05;32.17;;;5.70;99.90;;;;;;4960339;28;20039;-50
2022/01/24 09:36:01;;;;;;;56.88;31.05;;;5.70;99.90;;;;;;4960206;28;20440;-49
2022/01/24 09:38:32;;;;;;;53.55;31.40;;;5.70;99.90;;;;;;4965165;28;20771;-50
2022/01/24 09:41:01;;;;;;;54.33;31.50;;;5.70;99.90;;;;;;4960229;28;20030;-53
2022/01/24 09:43:27;;;;;;;56.13;31.65;;;5.70;99.90;;;;;;4965983;28;20298;-51
2022/01/24 09:45:53;;;;;;;55.85;32.75;;;5.70;99.90;;;;;;4962470;28;20051;-52
2022/01/24 09:48:19;;;;;;;53.33;31.35;;;5.70;99.90;;;;;;4961958;28;20109;-52
2022/01/24 09:50:46;;;;;;;53.08;31.90;;;5.70;99.90;;;;;;4957123;28;20121;-49
2022/01/24 09:53:16;;;;;;;57.10;31.80;;;5.70;99.90;;;;;;4979162;28;20035;-52
2022/01/24 09:55:41;;;;;;;55.33;32.42;;;5.70;99.90;;;;;;4965964;28;20031;-52
2022/01/24 09:58:07;;;;;;;57.25;32.38;;;5.60;99.90;;;;;;4963024;28;20073;-50
2022/01/24 10:00:33;;;;;;;53.70;30.92;;;5.70;99.90;;;;;;4966608;28;20396;-49
2022/01/24 10:02:59;;;;;;;53.08;31.35;;;5.70;99.90;;;;;;4972783;28;20038;-51
2022/01/24 10:05:30;;;;;;;59.97;32.70;;;5.70;99.90;;;;;;4972964;28;20113;-50
2022/01/24 10:07:58;;;;;;;53.97;31.30;;;5.70;99.90;;;;;;4971132;28;20125;-50
2022/01/24 10:10:45;;;;;;;52.45;30.23;;;5.70;99.90;;;;;;4966117;28;20486;-49
2022/01/24 10:16:43;;;;;;;51.15;30.42;;;5.70;99.90;;;;;;4972688;28;20109;-49
2022/01/24 10:19:20;;;;;;;49.45;29.73;;;5.70;99.90;;;;;;4961613;28;20334;-49
2022/01/24 10:21:49;;;;;;;50.30;29.52;;;5.70;99.90;;;;;;4967733;28;20081;-49
2022/01/24 10:24:26;;;;;;;47.88;28.95;;;5.80;99.90;;;;;;4963858;28;20448;-49
2022/01/24 10:27:25;;;;;;;49.00;30.50;;;5.80;99.90;;;;;;4958457;28;20054;-50
2022/01/24 10:29:56;;;;;;;46.28;27.73;;;5.80;99.90;;;;;;4959579;28;20088;-52
2022/01/24 10:32:44;;;;;;;46.70;27.90;;;5.80;99.90;;;;;;4972656;28;20149;-49
2022/01/24 10:35:35;;;;;;;43.05;26.35;;;5.70;99.90;;;;;;4962188;28;20463;-49
2022/01/24 10:41:11;;;;;;;38.88;25.27;;;5.70;99.90;;;;;;4971456;28;20640;-49
2022/01/24 10:43:38;;;;;;;41.28;26.90;;;5.70;99.90;;;;;;4961971;28;20039;-50
2022/01/24 10:46:06;;;;;;;41.85;26.65;;;5.70;99.90;;;;;;4967341;28;20085;-49
2022/01/24 10:48:34;;;;;;;42.40;27.10;;;5.70;99.90;;;;;;4962547;28;20040;-50
2022/01/24 10:51:10;;;;;;;43.83;28.23;;;5.70;99.90;;;;;;4963398;28;20162;-52
2022/01/24 10:53:45;;;;;;;43.65;26.92;;;5.80;99.90;;;;;;4960401;28;20035;-54
2022/01/24 10:56:44;;;;;;;37.45;25.00;;;5.80;99.90;;;;;;4970787;28;20042;-50
2022/01/24 10:59:10;;;;;;;39.58;25.13;;;5.70;99.90;;;;;;4953071;28;20065;-49
2022/01/24 11:01:36;;;;;;;32.45;22.23;;;5.70;99.90;;;;;;4968751;28;20627;-49
2022/01/24 11:04:10;;;;;;;34.47;24.02;;;5.70;99.90;;;;;;4966605;28;20118;-49
2022/01/24 11:06:48;;;;;;;33.47;23.73;;;5.80;99.90;;;;;;4963543;28;20043;-54
2022/01/24 11:09:34;;;;;;;29.52;20.52;;;5.90;99.90;;;;;;4969098;28;20057;-49
2022/01/24 11:12:09;;;;;;;29.30;21.38;;;5.70;99.90;;;;;;4955293;28;20376;-49
2022/01/24 11:14:36;;;;;;;30.52;21.58;;;5.80;99.90;;;;;;4966381;28;20054;-53
2022/01/24 11:17:02;;;;;;;31.98;22.65;;;5.80;99.90;;;;;;4968262;28;20483;-49
2022/01/24 11:22:00;;;;;;;32.40;23.25;;;5.80;99.90;;;;;;4968447;28;20039;-49
2022/01/24 11:24:37;;;;;;;34.08;24.58;;;5.80;99.90;;;;;;4973600;28;20062;-50
2022/01/24 11:27:04;;;;;;;33.65;24.30;;;5.80;99.90;;;;;;4975708;28;20113;-50
2022/01/24 11:29:31;;;;;;;31.58;23.77;;;5.90;99.90;;;;;;4971331;28;20039;-49
2022/01/24 11:32:22;;;;;;;35.03;24.33;;;5.90;99.90;;;;;;4975620;28;20035;-49
2022/01/24 11:34:51;;;;;;;34.15;24.27;;;5.90;99.90;;;;;;4964405;28;20039;-49
2022/01/24 11:39:55;;;;;;;32.72;24.25;;;5.90;99.90;;;;;;5053703;23;20445;-50
2022/01/24 11:42:29;;;;;;;33.35;23.75;;;6.00;99.90;;;;;;5014104;28;20049;-50
2022/01/24 11:44:58;;;;;;;34.80;25.35;;;6.00;99.90;;;;;;5009182;28;20076;-50
2022/01/24 11:47:26;;;;;;;34.25;25.42;;;5.90;99.90;;;;;;5019078;28;20124;-49
2022/01/24 11:49:53;;;;;;;34.03;24.83;;;5.90;99.90;;;;;;5019076;28;20351;-50
2022/01/24 11:52:27;;;;;;;34.38;25.27;;;5.80;99.90;;;;;;5025256;28;20037;-48
2022/01/24 11:55:06;;;;;;;33.58;24.65;;;5.80;99.90;;;;;;5023461;28;20119;-52
2022/01/24 11:57:39;;;;;;;36.22;25.67;;;5.80;99.90;;;;;;5019550;28;20045;-49
2022/01/24 12:00:05;;;;;;;35.60;25.27;;;5.80;99.90;;;;;;5025944;28;20422;-53
2022/01/24 12:02:45;;;;;;;31.95;23.65;;;5.80;99.90;;;;;;5024455;28;20390;-51
2022/01/24 12:05:16;;;;;;;28.25;21.85;;;5.80;99.90;;;;;;5021302;28;20505;-51
2022/01/24 12:07:50;;;;;;;32.72;24.70;;;5.80;99.90;;;;;;5004891;28;20068;-49
2022/01/24 12:10:22;;;;;;;30.33;22.40;;;5.80;99.90;;;;;;5017518;28;20092;-53
2022/01/24 12:13:00;;;;;;;26.38;19.27;;;5.70;99.90;;;;;;5019483;28;20033;-49
2022/01/24 12:15:37;;;;;;;22.67;18.15;;;5.70;99.90;;;;;;5018746;28;20041;-47
2022/01/24 12:18:04;;;;;;;22.98;17.92;;;5.70;99.90;;;;;;5018491;28;20036;-48
2022/01/24 12:20:29;;;;;;;23.45;17.52;;;5.60;99.90;;;;;;5021366;28;20469;-47
2022/01/24 12:22:56;;;;;;;21.55;16.50;;;5.60;99.90;;;;;;5021469;28;20069;-51
2022/01/24 12:25:48;;;;;;;20.80;16.08;;;5.60;99.90;;;;;;5020963;28;20084;-48
2022/01/24 12:28:33;;;;;;;22.83;17.45;;;5.70;99.90;;;;;;5021257;28;20052;-49
2022/01/24 12:30:59;;;;;;;22.40;17.52;;;5.70;99.90;;;;;;5027358;28;20041;-49
2022/01/24 12:33:40;;;;;;;22.10;17.98;;;5.70;99.90;;;;;;5022659;28;20453;-50
2022/01/24 12:36:11;;;;;;;25.85;16.98;;;5.70;99.90;;;;;;5000386;28;20500;-52
2022/01/24 12:38:44;;;;;;;21.25;16.38;;;5.70;99.90;;;;;;5026286;28;20044;-50
2022/01/24 12:41:27;;;;;;;24.40;17.98;;;5.70;99.90;;;;;;5018359;28;20041;-48
2022/01/24 12:43:58;;;;;;;;;;;5.70;99.90;;;;;;5016004;28;20503;-47
2022/01/24 12:46:26;;;;;;;24.58;17.65;;;5.70;99.90;;;;;;5002418;28;19921;-51
2022/01/24 12:48:53;;;;;;;23.52;17.15;;;5.70;99.90;;;;;;5026525;28;20045;-48
2022/01/24 12:51:22;;;;;;;26.15;17.52;;;5.70;99.90;;;;;;5013594;28;20131;-49
2022/01/24 12:53:50;;;;;;;23.98;17.55;;;5.70;99.90;;;;;;5023278;28;20087;-48
2022/01/24 12:56:19;;;;;;;24.75;18.20;;;5.70;99.90;;;;;;5021011;28;20037;-52
2022/01/24 12:58:49;;;;;;;27.05;19.63;;;5.70;99.90;;;;;;5021473;28;20041;-51
2022/01/24 13:01:30;;;;;;;24.73;18.98;;;5.70;99.90;;;;;;5019628;28;20509;-47
2022/01/24 13:03:58;;;;;;;27.67;20.25;;;5.80;99.90;;;;;;5022905;28;20548;-48
2022/01/24 13:06:35;;;;;;;27.60;20.02;;;5.80;99.90;;;;;;5021765;28;20058;-51
2022/01/24 13:09:19;;;;;;;28.13;20.80;;;5.70;99.90;;;;;;5023101;28;20038;-50
2022/01/24 13:12:00;;;;;;;30.30;22.00;;;5.70;99.90;;;;;;5021613;28;20090;-48
2022/01/24 13:20:58;;;;;;;31.08;22.75;;;5.80;99.90;;;;;;5018352;28;20426;-51
2022/01/24 13:23:23;;;;;;;31.98;23.10;;;5.80;99.90;;;;;;5015587;28;20044;-48
2022/01/24 13:25:50;;;;;;;30.55;22.25;;;5.80;99.90;;;;;;5023610;28;20448;-49
2022/01/24 13:28:19;;;;;;;32.13;23.45;;;5.80;99.90;;;;;;5023825;28;20453;-49
2022/01/24 13:30:47;;;;;;;30.50;21.85;;;5.80;99.90;;;;;;5014781;28;20075;-49
2022/01/24 13:33:16;;;;;;;30.75;22.65;;;5.80;99.90;;;;;;5025486;28;20033;-49
2022/01/24 13:35:45;;;;;;;31.55;22.38;;;5.80;99.90;;;;;;5028809;28;20051;-48
2022/01/24 13:38:13;;;;;;;30.85;21.90;;;5.80;99.90;;;;;;5024766;28;20033;-50
2022/01/24 13:41:14;;;;;;;30.90;23.13;;;5.70;99.90;;;;;;5024131;28;20038;-49
2022/01/24 13:43:45;;;;;;;35.88;22.60;;;5.70;99.90;;;;;;4992804;28;20052;-49
2022/01/24 13:46:30;;;;;;;38.97;23.90;;;5.70;99.90;;;;;;5029266;28;20033;-52
2022/01/24 13:48:56;;;;;;;36.78;24.38;;;5.70;99.90;;;;;;5009801;28;20041;-50
2022/01/24 13:51:26;;;;;;;32.08;23.25;;;5.70;99.90;;;;;;5023086;28;20042;-52
2022/01/24 13:53:51;;;;;;;31.25;23.10;;;5.70;99.90;;;;;;5021967;28;20037;-51
2022/01/24 13:56:18;;;;;;;32.65;24.08;;;5.70;99.90;;;;;;5027036;28;20045;-49
2022/01/24 13:59:25;;;;;;;34.35;23.40;;;6.00;99.90;;;;;;5015261;28;20044;-49
2022/01/24 14:01:57;;;;;;;29.52;21.40;;;5.70;99.90;;;;;;5022004;28;20045;-52
2022/01/24 14:04:42;;;;;;;29.97;20.97;;;5.70;99.90;;;;;;5017380;28;20136;-48
2022/01/24 14:07:14;;;;;;;31.85;21.90;;;5.70;99.90;;;;;;5021376;28;20041;-51
2022/01/24 14:09:42;;;;;;;36.47;25.98;;;5.70;99.90;;;;;;5022835;28;20396;-52
2022/01/24 14:12:15;;;;;;;36.88;24.25;;;5.70;99.90;;;;;;5028862;28;20049;-49
2022/01/24 14:14:57;;;;;;;37.00;25.90;;;5.60;99.90;;;;;;5018921;28;20532;-52
2022/01/24 14:17:44;;;;;;;36.63;25.67;;;5.70;99.90;;;;;;5022686;28;20120;-52
2022/01/24 14:20:16;;;;;;;31.02;22.38;;;5.60;99.90;;;;;;5019580;28;20456;-53
2022/01/24 14:22:52;;;;;;;30.63;21.88;;;5.60;99.90;;;;;;5028175;28;20568;-52
2022/01/24 14:25:28;;;;;;;31.02;21.23;;;5.60;99.90;;;;;;5017697;28;20038;-49
2022/01/24 14:27:57;;;;;;;30.88;22.45;;;5.60;99.90;;;;;;5021929;28;20042;-52
2022/01/24 14:30:26;;;;;;;29.23;21.27;;;5.50;99.90;;;;;;5023134;28;20561;-52